createdAt,value
2022-08-28T00:00:28.137Z,7.40
2022-08-28T00:02:55.459Z,7.25
2022-08-28T00:05:24.232Z,9.05
2022-08-28T00:07:50.665Z,8.00
2022-08-28T00:10:19.000Z,9.13
2022-08-28T00:12:46.973Z,6.55
2022-08-28T00:15:16.185Z,7.13
2022-08-28T00:17:43.169Z,9.55
2022-08-28T00:20:10.591Z,10.00
2022-08-28T00:22:38.337Z,9.73
2022-08-28T00:25:09.908Z,9.25
2022-08-28T00:27:55.223Z,8.98
2022-08-28T00:30:24.044Z,10.80
2022-08-28T00:32:51.138Z,9.23
2022-08-28T00:35:18.282Z,12.38
2022-08-28T00:37:46.064Z,7.32
2022-08-28T00:40:15.824Z,7.40
2022-08-28T00:42:42.963Z,10.88
2022-08-28T00:45:09.876Z,11.82
2022-08-28T00:47:36.465Z,8.88
2022-08-28T00:50:04.040Z,8.38
2022-08-28T00:52:30.624Z,7.97
2022-08-28T00:55:00.016Z,9.10
2022-08-28T00:57:29.246Z,8.23
2022-08-28T00:59:55.765Z,15.38
2022-08-28T01:02:22.357Z,11.35
2022-08-28T01:04:49.698Z,8.10
2022-08-28T01:07:17.126Z,9.48
2022-08-28T01:09:45.768Z,8.40
2022-08-28T01:12:15.754Z,10.27
2022-08-28T01:14:45.693Z,7.63
2022-08-28T01:17:13.381Z,8.55
2022-08-28T01:19:57.066Z,8.85
2022-08-28T01:22:41.417Z,9.93
2022-08-28T01:25:13.175Z,10.98
2022-08-28T01:27:41.848Z,12.57
2022-08-28T01:30:16.153Z,10.43
2022-08-28T01:32:45.362Z,12.23
2022-08-28T01:35:14.005Z,8.18
2022-08-28T01:37:40.889Z,6.30
2022-08-28T01:40:09.293Z,10.13
2022-08-28T01:42:42.518Z,11.43
2022-08-28T01:45:11.042Z,7.07
2022-08-28T01:47:38.013Z,6.53
2022-08-28T01:50:05.462Z,9.98
2022-08-28T01:52:31.957Z,8.07
2022-08-28T01:54:59.827Z,9.95
2022-08-28T01:57:26.505Z,6.80
2022-08-28T01:59:55.797Z,11.93
2022-08-28T02:02:22.335Z,8.93
2022-08-28T02:04:48.763Z,8.70
2022-08-28T02:07:16.833Z,9.77
2022-08-28T02:09:43.764Z,7.68
2022-08-28T02:12:10.269Z,6.80
2022-08-28T02:14:38.625Z,8.35
2022-08-28T02:17:05.073Z,5.85
2022-08-28T02:19:32.173Z,8.75
2022-08-28T02:21:58.618Z,7.05
2022-08-28T02:24:25.100Z,4.72
2022-08-28T02:26:52.944Z,6.70
2022-08-28T02:29:19.427Z,8.15
2022-08-28T02:31:45.914Z,5.25
2022-08-28T02:34:12.393Z,6.70
2022-08-28T02:36:42.173Z,6.65
2022-08-28T02:39:08.727Z,5.55
2022-08-28T02:41:35.180Z,6.35
2022-08-28T02:44:01.652Z,6.82
2022-08-28T02:46:28.168Z,5.20
2022-08-28T02:48:55.339Z,4.90
2022-08-28T02:51:21.849Z,4.20
2022-08-28T02:53:49.475Z,4.97
2022-08-28T02:56:16.605Z,7.07
2022-08-28T02:58:43.038Z,5.35
2022-08-28T03:01:11.271Z,5.43
2022-08-28T03:03:40.955Z,4.78
2022-08-28T03:06:08.910Z,5.50
2022-08-28T03:08:35.990Z,7.55
2022-08-28T03:11:02.362Z,5.40
2022-08-28T03:13:29.992Z,5.55
2022-08-28T03:15:56.905Z,5.60
2022-08-28T03:18:24.400Z,7.68
2022-08-28T03:20:51.976Z,3.22
2022-08-28T03:23:27.439Z,4.70
2022-08-28T03:26:08.844Z,7.00
2022-08-28T03:28:39.071Z,4.75
2022-08-28T03:31:06.608Z,6.68
2022-08-28T03:33:33.701Z,6.30
2022-08-28T03:36:00.201Z,6.68
2022-08-28T03:38:31.134Z,7.10
2022-08-28T03:40:57.534Z,10.65
2022-08-28T03:43:24.831Z,10.43
2022-08-28T03:45:58.133Z,10.35
2022-08-28T03:48:26.082Z,10.80
2022-08-28T03:50:55.860Z,7.68
2022-08-28T03:53:22.836Z,7.70
2022-08-28T03:55:49.363Z,11.77
2022-08-28T03:58:18.999Z,14.15
2022-08-28T04:00:46.260Z,9.38
2022-08-28T04:03:13.455Z,7.43
2022-08-28T04:05:40.797Z,8.80
2022-08-28T04:08:08.021Z,9.98
2022-08-28T04:10:34.670Z,6.75
2022-08-28T04:13:01.137Z,7.35
2022-08-28T04:15:28.041Z,7.85
2022-08-28T04:17:54.694Z,7.50
2022-08-28T04:20:21.192Z,7.38
2022-08-28T04:22:48.530Z,6.90
2022-08-28T04:25:22.016Z,5.22
2022-08-28T04:27:49.335Z,6.35
2022-08-28T04:30:15.809Z,9.93
2022-08-28T04:32:42.313Z,7.10
2022-08-28T04:35:10.364Z,6.22
2022-08-28T04:37:37.279Z,10.70
2022-08-28T04:40:05.928Z,10.52
2022-08-28T04:42:32.396Z,6.72
2022-08-28T04:44:59.593Z,6.22
2022-08-28T04:47:27.313Z,5.47
2022-08-28T04:49:54.155Z,10.15
2022-08-28T04:52:20.593Z,8.05
2022-08-28T04:54:47.021Z,13.55
2022-08-28T04:57:13.452Z,6.95
2022-08-28T04:59:41.858Z,7.95
2022-08-28T05:02:09.240Z,8.70
2022-08-28T05:04:35.701Z,6.97
2022-08-28T05:07:02.144Z,9.07
2022-08-28T05:09:28.698Z,9.82
2022-08-28T05:11:55.204Z,5.57
2022-08-28T05:14:21.746Z,10.27
2022-08-28T05:16:49.737Z,7.75
2022-08-28T05:19:17.234Z,9.13
2022-08-28T05:21:44.015Z,8.80
2022-08-28T05:24:10.468Z,17.95
2022-08-28T05:26:40.024Z,13.23
2022-08-28T05:29:07.006Z,6.38
2022-08-28T05:31:34.116Z,8.45
2022-08-28T05:34:01.189Z,8.00
2022-08-28T05:36:32.558Z,8.63
2022-08-28T05:39:00.218Z,7.65
2022-08-28T05:41:30.148Z,10.05
2022-08-28T05:44:01.191Z,9.23
2022-08-28T05:46:28.308Z,8.38
2022-08-28T05:48:55.454Z,7.20
2022-08-28T05:51:22.950Z,12.25
2022-08-28T05:53:52.733Z,5.80
2022-08-28T05:56:21.477Z,9.27
2022-08-28T05:58:48.064Z,6.80
2022-08-28T06:01:16.689Z,10.35
2022-08-28T06:03:44.580Z,8.55
2022-08-28T06:06:11.718Z,8.52
2022-08-28T06:08:39.111Z,3.97
2022-08-28T06:11:24.902Z,7.68
2022-08-28T06:13:51.514Z,7.53
2022-08-28T06:16:18.020Z,9.10
2022-08-28T06:18:44.626Z,10.10
2022-08-28T06:21:11.044Z,9.05
2022-08-28T06:23:37.452Z,9.45
2022-08-28T06:26:04.967Z,7.53
2022-08-28T06:28:31.743Z,7.47
2022-08-28T06:31:18.665Z,12.20
2022-08-28T06:33:46.084Z,6.80
2022-08-28T06:36:12.567Z,15.35
2022-08-28T06:38:39.048Z,9.95
2022-08-28T06:41:08.954Z,10.48
2022-08-28T06:43:35.981Z,9.77
2022-08-28T06:46:02.547Z,8.52
2022-08-28T06:48:29.018Z,10.13
2022-08-28T06:50:56.902Z,9.85
2022-08-28T06:53:24.752Z,10.20
2022-08-28T06:56:02.806Z,6.50
2022-08-28T06:58:29.345Z,5.68
2022-08-28T07:01:03.603Z,5.43
2022-08-28T07:03:30.442Z,9.25
2022-08-28T07:06:00.688Z,10.25
2022-08-28T07:08:28.569Z,12.40
2022-08-28T07:10:55.193Z,10.77
2022-08-28T07:13:22.208Z,6.80
2022-08-28T07:15:49.115Z,8.63
2022-08-28T07:18:17.466Z,7.93
2022-08-28T07:20:44.713Z,13.13
2022-08-28T07:23:11.203Z,9.30
2022-08-28T07:25:41.464Z,9.15
2022-08-28T07:28:08.131Z,8.65
2022-08-28T07:30:34.856Z,9.75
2022-08-28T07:33:01.260Z,5.93
2022-08-28T07:35:27.704Z,6.60
2022-08-28T07:37:54.130Z,8.85
2022-08-28T07:40:22.329Z,10.43
2022-08-28T07:43:07.505Z,6.55
2022-08-28T07:45:35.857Z,6.90
2022-08-28T07:48:11.297Z,9.85
2022-08-28T07:50:38.125Z,5.72
2022-08-28T07:53:08.084Z,8.70
2022-08-28T07:55:34.473Z,7.43
2022-08-28T07:58:01.178Z,8.50
2022-08-28T08:00:28.676Z,5.28
2022-08-28T08:02:55.218Z,11.00
2022-08-28T08:05:21.735Z,7.05
2022-08-28T08:07:48.242Z,9.18
2022-08-28T08:10:14.941Z,6.22
2022-08-28T08:12:47.082Z,6.18
2022-08-28T08:15:13.605Z,6.40
2022-08-28T08:17:40.186Z,4.28
2022-08-28T08:20:07.370Z,5.95
2022-08-28T08:22:34.393Z,6.75
2022-08-28T08:25:00.917Z,8.45
2022-08-28T08:27:27.470Z,5.95
2022-08-28T08:29:53.966Z,4.82
2022-08-28T08:32:20.486Z,3.70
2022-08-28T08:34:46.970Z,6.90
2022-08-28T08:37:13.536Z,4.22
2022-08-28T08:39:41.546Z,7.53
2022-08-28T08:42:18.998Z,4.85
2022-08-28T08:44:47.492Z,4.55
2022-08-28T08:47:19.305Z,6.72
2022-08-28T08:49:57.090Z,9.48
2022-08-28T08:52:42.220Z,7.70
2022-08-28T08:55:23.448Z,4.30
2022-08-28T08:57:59.320Z,6.88
2022-08-28T09:00:25.941Z,4.78
2022-08-28T09:03:13.030Z,5.85
2022-08-28T09:05:42.596Z,4.65
2022-08-28T09:08:15.170Z,5.90
2022-08-28T09:10:45.277Z,9.13
2022-08-28T09:13:17.124Z,6.47
2022-08-28T09:15:48.786Z,4.35
2022-08-28T09:18:32.708Z,6.28
2022-08-28T09:21:00.108Z,4.75
2022-08-28T09:23:29.954Z,8.18
2022-08-28T09:26:01.702Z,7.22
2022-08-28T09:28:36.745Z,6.97
2022-08-28T09:31:05.503Z,6.13
2022-08-28T09:33:37.769Z,5.10
2022-08-28T09:36:25.143Z,3.83
2022-08-28T09:39:10.541Z,2.50
2022-08-28T09:41:58.121Z,3.70
2022-08-28T09:44:25.386Z,8.75
2022-08-28T09:46:52.229Z,5.28
2022-08-28T09:49:29.386Z,3.63
2022-08-28T09:51:56.806Z,4.30
2022-08-28T09:54:36.379Z,3.25
2022-08-28T09:57:03.550Z,4.55
2022-08-28T09:59:30.132Z,3.97
2022-08-28T10:01:59.819Z,7.50
2022-08-28T10:04:32.764Z,4.70
2022-08-28T10:07:18.071Z,6.60
2022-08-28T10:09:47.720Z,3.70
2022-08-28T10:12:40.083Z,3.45
2022-08-28T10:15:06.574Z,6.50
2022-08-28T10:17:39.216Z,2.65
2022-08-28T10:20:12.937Z,5.82
2022-08-28T10:22:47.696Z,3.75
2022-08-28T10:25:17.191Z,4.22
2022-08-28T10:27:46.657Z,3.80
2022-08-28T10:30:19.363Z,2.13
2022-08-28T10:32:52.374Z,6.40
2022-08-28T10:35:23.932Z,3.53
2022-08-28T10:38:16.735Z,4.10
2022-08-28T10:40:59.181Z,4.85
2022-08-28T10:45:52.012Z,6.88
2022-08-28T10:48:27.468Z,4.53
2022-08-28T10:50:53.958Z,3.38
2022-08-28T10:53:23.044Z,5.15
2022-08-28T10:56:02.706Z,3.40
2022-08-28T10:58:30.407Z,5.00
2022-08-28T11:01:01.031Z,5.88
2022-08-28T11:03:35.925Z,2.25
2022-08-28T11:06:11.275Z,2.83
2022-08-28T11:08:39.447Z,3.10
2022-08-28T11:11:11.817Z,3.63
2022-08-28T11:13:40.425Z,3.75
2022-08-28T11:16:11.709Z,4.93
2022-08-28T11:18:47.185Z,4.63
2022-08-28T11:21:18.728Z,3.38
2022-08-28T11:23:54.192Z,4.07
2022-08-28T11:26:28.592Z,2.80
2022-08-28T11:28:54.972Z,4.03
2022-08-28T11:31:29.682Z,3.78
2022-08-28T11:33:58.961Z,2.83
2022-08-28T11:36:26.400Z,3.22
2022-08-28T11:38:55.819Z,4.60
2022-08-28T11:41:32.814Z,3.10
2022-08-28T11:44:25.441Z,3.47
2022-08-28T11:46:52.865Z,2.88
2022-08-28T11:49:28.349Z,2.78
2022-08-28T11:52:03.849Z,5.43
2022-08-28T11:54:30.189Z,4.80
2022-08-28T11:57:19.443Z,2.55
2022-08-28T12:00:04.505Z,3.50
2022-08-28T12:02:39.988Z,2.33
2022-08-28T12:05:08.558Z,6.80
2022-08-28T12:07:36.382Z,2.17
2022-08-28T12:10:05.126Z,2.30
2022-08-28T12:12:46.775Z,3.30
2022-08-28T12:15:39.548Z,3.80
2022-08-28T12:18:12.061Z,6.30
2022-08-28T12:20:48.503Z,2.85
2022-08-28T12:23:23.776Z,3.28
2022-08-28T12:25:51.344Z,4.25
2022-08-28T12:28:37.203Z,2.60
2022-08-28T12:31:44.272Z,2.83
2022-08-28T12:34:20.325Z,6.22
2022-08-28T12:36:54.759Z,4.07
2022-08-28T12:39:21.132Z,3.88
2022-08-28T12:41:47.580Z,4.85
2022-08-28T12:44:15.421Z,4.32
2022-08-28T12:46:43.373Z,3.53
2022-08-28T12:49:26.340Z,6.60
2022-08-28T12:52:06.126Z,2.22
2022-08-28T12:54:32.520Z,3.05
2022-08-28T12:56:58.921Z,2.45
2022-08-28T12:59:32.980Z,2.60
2022-08-28T13:02:05.693Z,3.13
2022-08-28T13:04:40.353Z,3.88
2022-08-28T13:07:06.700Z,3.83
2022-08-28T13:09:33.428Z,4.88
2022-08-28T13:11:59.855Z,3.63
2022-08-28T13:14:36.828Z,2.92
2022-08-28T13:17:03.428Z,3.58
2022-08-28T13:19:31.465Z,3.58
2022-08-28T13:22:00.566Z,2.28
2022-08-28T13:24:28.636Z,4.15
2022-08-28T13:27:00.714Z,2.92
2022-08-28T13:31:56.510Z,5.07
2022-08-28T13:34:25.752Z,4.13
2022-08-28T13:36:57.978Z,5.07
2022-08-28T13:39:24.376Z,5.45
2022-08-28T13:41:52.845Z,4.10
2022-08-28T13:44:30.769Z,3.60
2022-08-28T13:46:57.929Z,2.85
2022-08-28T13:49:27.592Z,4.50
2022-08-28T13:51:54.530Z,4.88
2022-08-28T13:54:23.053Z,5.13
2022-08-28T13:56:51.948Z,3.80
2022-08-28T13:59:18.701Z,5.13
2022-08-28T14:02:04.101Z,7.28
2022-08-28T14:04:30.958Z,2.78
2022-08-28T14:06:57.523Z,3.58
2022-08-28T14:09:24.077Z,2.03
2022-08-28T14:11:51.717Z,1.73
2022-08-28T14:14:18.100Z,3.00
2022-08-28T14:16:45.661Z,3.03
2022-08-28T14:19:12.738Z,1.85
2022-08-28T14:21:40.516Z,2.50
2022-08-28T14:24:07.489Z,2.72
2022-08-28T14:26:34.110Z,2.88
2022-08-28T14:29:01.361Z,5.03
2022-08-28T14:31:28.699Z,3.63
2022-08-28T14:33:56.840Z,3.95
2022-08-28T14:36:24.920Z,2.25
2022-08-28T14:38:54.104Z,3.40
2022-08-28T14:41:21.223Z,4.50
2022-08-28T14:43:49.318Z,3.20
2022-08-28T14:46:16.971Z,2.72
2022-08-28T14:48:43.461Z,3.85
2022-08-28T14:51:09.905Z,2.90
2022-08-28T14:53:37.156Z,3.13
2022-08-28T14:56:05.153Z,3.38
2022-08-28T14:58:33.973Z,4.88
2022-08-28T15:01:00.746Z,3.78
2022-08-28T15:03:27.261Z,5.05
2022-08-28T15:06:04.520Z,3.35
2022-08-28T15:08:31.190Z,4.07
2022-08-28T15:10:57.608Z,7.32
2022-08-28T15:13:24.312Z,6.15
2022-08-28T15:16:05.350Z,6.25
2022-08-28T15:18:42.550Z,5.20
2022-08-28T15:21:20.145Z,9.60
2022-08-28T15:23:48.677Z,3.78
2022-08-28T15:26:15.964Z,5.72
2022-08-28T15:28:42.712Z,3.47
2022-08-28T15:31:09.163Z,3.13
2022-08-28T15:33:35.708Z,4.15
2022-08-28T15:36:02.132Z,4.32
2022-08-28T15:38:48.525Z,3.10
2022-08-28T15:41:33.105Z,3.20
2022-08-28T15:44:00.789Z,5.53
2022-08-28T15:46:29.051Z,4.53
2022-08-28T15:48:55.851Z,4.20
2022-08-28T15:51:25.866Z,5.28
2022-08-28T15:53:52.849Z,5.07
2022-08-28T15:56:19.961Z,3.55
2022-08-28T15:58:46.638Z,5.40
2022-08-28T16:01:13.449Z,3.80
2022-08-28T16:03:40.459Z,4.35
2022-08-28T16:06:14.728Z,4.75
2022-08-28T16:08:41.686Z,3.15
2022-08-28T16:11:08.524Z,3.13
2022-08-28T16:13:35.442Z,2.78
2022-08-28T16:16:02.687Z,4.35
2022-08-28T16:18:29.167Z,3.05
2022-08-28T16:20:55.605Z,4.35
2022-08-28T16:23:22.292Z,6.85
2022-08-28T16:25:48.893Z,4.00
2022-08-28T16:28:15.407Z,3.88
2022-08-28T16:30:43.848Z,2.97
2022-08-28T16:33:10.830Z,3.50
2022-08-28T16:35:47.910Z,3.20
2022-08-28T16:38:16.444Z,3.13
2022-08-28T16:40:43.457Z,4.80
2022-08-28T16:43:10.032Z,4.22
2022-08-28T16:45:37.253Z,3.78
2022-08-28T16:48:04.546Z,5.07
2022-08-28T16:50:32.460Z,4.20
2022-08-28T16:53:02.461Z,2.92
2022-08-28T16:57:58.081Z,5.38
2022-08-28T17:00:24.452Z,4.38
2022-08-28T17:02:51.267Z,7.80
2022-08-28T17:05:19.484Z,7.13
2022-08-28T17:07:46.550Z,5.47
2022-08-28T17:10:14.145Z,8.95
2022-08-28T17:12:40.847Z,8.80
2022-08-28T17:15:08.044Z,6.65
2022-08-28T17:17:35.051Z,7.38
2022-08-28T17:20:01.678Z,9.60
2022-08-28T17:22:31.965Z,7.80
2022-08-28T17:25:02.368Z,10.00
2022-08-28T17:27:29.084Z,9.60
2022-08-28T17:29:55.550Z,8.98
2022-08-28T17:32:22.061Z,7.00
2022-08-28T17:34:48.581Z,6.43
2022-08-28T17:37:15.685Z,11.05
2022-08-28T17:39:42.481Z,6.22
2022-08-28T17:42:08.854Z,6.13
2022-08-28T17:44:36.378Z,8.48
2022-08-28T17:47:03.214Z,5.15
2022-08-28T17:49:29.920Z,5.07
2022-08-28T17:51:56.464Z,3.58
2022-08-28T17:54:24.268Z,5.57
2022-08-28T17:56:51.856Z,6.15
2022-08-28T17:59:18.632Z,6.53
2022-08-28T18:01:46.335Z,3.20
2022-08-28T18:04:13.494Z,6.13
2022-08-28T18:06:39.930Z,3.38
2022-08-28T18:09:06.724Z,5.40
2022-08-28T18:11:33.223Z,4.60
2022-08-28T18:13:59.771Z,6.45
2022-08-28T18:16:31.173Z,4.22
2022-08-28T18:18:58.757Z,3.83
2022-08-28T18:21:25.262Z,4.47
2022-08-28T18:23:51.800Z,6.70
2022-08-28T18:26:18.258Z,3.65
2022-08-28T18:28:44.621Z,5.13
2022-08-28T18:31:11.030Z,8.02
2022-08-28T18:33:37.477Z,6.25
2022-08-28T18:36:07.161Z,2.40
2022-08-28T18:38:35.452Z,3.10
2022-08-28T18:41:02.201Z,3.35
2022-08-28T18:43:28.705Z,3.40
2022-08-28T18:45:55.268Z,4.30
2022-08-28T18:48:22.028Z,2.13
2022-08-28T18:50:48.704Z,4.47
2022-08-28T18:53:15.996Z,2.75
2022-08-28T18:55:42.430Z,2.78
2022-08-28T18:58:10.365Z,2.22
2022-08-28T19:00:41.926Z,2.50
2022-08-28T19:03:09.178Z,1.65
2022-08-28T19:05:35.984Z,4.03
2022-08-28T19:08:02.484Z,7.28
2022-08-28T19:10:34.030Z,3.22
2022-08-28T19:13:00.978Z,2.90
2022-08-28T19:15:28.165Z,3.55
2022-08-28T19:17:54.614Z,1.95
2022-08-28T19:20:21.269Z,3.45
2022-08-28T19:22:48.671Z,2.67
2022-08-28T19:25:28.632Z,3.08
2022-08-28T19:27:59.116Z,1.77
2022-08-28T19:30:27.312Z,4.10
2022-08-28T19:32:53.780Z,3.65
2022-08-28T19:35:20.490Z,3.88
2022-08-28T19:37:50.840Z,4.45
2022-08-28T19:40:17.324Z,2.35
2022-08-28T19:42:43.781Z,2.25
2022-08-28T19:45:12.345Z,3.08
2022-08-28T19:47:39.416Z,4.40
2022-08-28T19:50:08.341Z,3.53
2022-08-28T19:52:36.299Z,3.60
2022-08-28T19:55:04.278Z,4.97
2022-08-28T19:57:30.830Z,4.38
2022-08-28T19:59:57.401Z,2.67
2022-08-28T20:02:23.916Z,2.42
2022-08-28T20:04:50.384Z,2.45
2022-08-28T20:07:16.850Z,2.60
2022-08-28T20:09:43.279Z,2.15
2022-08-28T20:12:09.707Z,4.63
2022-08-28T20:14:38.721Z,3.25
2022-08-28T20:17:05.293Z,3.40
2022-08-28T20:19:33.364Z,1.83
2022-08-28T20:21:59.947Z,4.57
2022-08-28T20:24:26.468Z,4.60
2022-08-28T20:26:53.133Z,3.45
2022-08-28T20:29:20.199Z,3.30
2022-08-28T20:31:47.852Z,5.05
2022-08-28T20:34:15.723Z,4.63
2022-08-28T20:36:42.257Z,4.85
2022-08-28T20:39:09.270Z,2.55
2022-08-28T20:41:36.975Z,1.48
2022-08-28T20:44:06.252Z,5.85
2022-08-28T20:46:37.045Z,7.32
2022-08-28T20:49:06.921Z,3.53
2022-08-28T20:51:51.710Z,3.10
2022-08-28T20:54:20.649Z,3.38
2022-08-28T20:56:47.781Z,5.95
2022-08-28T20:59:14.482Z,2.85
2022-08-28T21:01:41.632Z,2.15
2022-08-28T21:04:08.141Z,2.13
2022-08-28T21:06:34.703Z,3.72
2022-08-28T21:09:01.208Z,5.15
2022-08-28T21:11:28.061Z,2.78
2022-08-28T21:13:55.332Z,2.30
2022-08-28T21:16:21.860Z,2.70
2022-08-28T21:19:14.035Z,3.22
2022-08-28T21:21:35.551Z,3.70
2022-08-28T21:24:03.034Z,3.40
2022-08-28T21:26:29.465Z,4.70
2022-08-28T21:28:57.473Z,4.85
2022-08-28T21:31:24.546Z,6.53
2022-08-28T21:33:50.960Z,4.43
2022-08-28T21:36:18.211Z,2.13
2022-08-28T21:38:45.066Z,3.40
2022-08-28T21:41:12.329Z,3.28
2022-08-28T21:43:39.373Z,2.47
2022-08-28T21:46:06.578Z,2.47
2022-08-28T21:48:35.295Z,4.80
2022-08-28T21:51:02.345Z,3.55
2022-08-28T21:53:31.476Z,4.43
2022-08-28T21:55:58.004Z,4.50
2022-08-28T21:58:24.760Z,3.55
2022-08-28T22:00:56.812Z,5.60
2022-08-28T22:03:24.036Z,4.25
2022-08-28T22:05:51.534Z,3.40
2022-08-28T22:08:18.817Z,4.68
2022-08-28T22:10:45.508Z,5.80
2022-08-28T22:13:12.572Z,2.45
2022-08-28T22:15:39.922Z,6.35
2022-08-28T22:18:09.894Z,3.83
2022-08-28T22:20:57.401Z,5.40
2022-08-28T22:23:24.671Z,2.67
2022-08-28T22:25:51.173Z,3.80
2022-08-28T22:28:17.563Z,3.00
2022-08-28T22:30:44.008Z,6.68
2022-08-28T22:33:10.741Z,4.85
2022-08-28T22:35:37.415Z,4.55
2022-08-28T22:38:03.866Z,4.13
2022-08-28T22:40:30.503Z,3.22
2022-08-28T22:42:57.303Z,5.60
2022-08-28T22:45:23.734Z,6.60
2022-08-28T22:47:50.262Z,4.85
2022-08-28T22:50:17.610Z,7.25
2022-08-28T22:52:46.245Z,3.45
2022-08-28T22:55:13.198Z,4.80
2022-08-28T22:57:39.785Z,4.13
2022-08-28T23:00:08.162Z,10.40
2022-08-28T23:02:34.818Z,5.45
2022-08-28T23:05:01.569Z,3.33
2022-08-28T23:07:28.104Z,6.07
2022-08-28T23:09:54.632Z,4.00
2022-08-28T23:12:21.049Z,3.47
2022-08-28T23:14:48.716Z,5.75
2022-08-28T23:17:16.852Z,4.47
2022-08-28T23:19:43.496Z,7.45
2022-08-28T23:22:12.881Z,3.97
2022-08-28T23:24:39.414Z,4.93
2022-08-28T23:27:32.372Z,6.13
2022-08-28T23:29:54.480Z,6.10
2022-08-28T23:32:21.144Z,3.35
2022-08-28T23:34:47.757Z,4.47
2022-08-28T23:37:14.156Z,6.13
2022-08-28T23:39:40.669Z,8.65
2022-08-28T23:42:07.958Z,12.88
2022-08-28T23:44:34.532Z,5.53
2022-08-28T23:47:01.785Z,6.28
2022-08-28T23:49:29.069Z,6.32
2022-08-28T23:51:55.472Z,3.90
2022-08-28T23:54:21.928Z,6.75
2022-08-28T23:56:48.369Z,4.18
2022-08-28T23:59:17.439Z,4.82
